sensor_id;sensor_type;location;lat;lon;timestamp;P1;durP1;ratioP1;P2;durP2;ratioP2
25922;SDS011;13725;51.170;4.442;2023-09-19T00:01:39;15.85;;;2.60;;
25922;SDS011;13725;51.170;4.442;2023-09-19T00:04:07;14.38;;;2.45;;
25922;SDS011;13725;51.170;4.442;2023-09-19T00:06:37;13.23;;;2.53;;
25922;SDS011;13725;51.170;4.442;2023-09-19T00:09:06;16.08;;;2.72;;
25922;SDS011;13725;51.170;4.442;2023-09-19T00:11:36;12.55;;;2.25;;
25922;SDS011;13725;51.170;4.442;2023-09-19T00:14:03;24.75;;;3.25;;
25922;SDS011;13725;51.170;4.442;2023-09-19T00:16:30;11.60;;;2.13;;
25922;SDS011;13725;51.170;4.442;2023-09-19T00:18:57;13.05;;;1.98;;
25922;SDS011;13725;51.170;4.442;2023-09-19T00:21:23;14.93;;;2.10;;
25922;SDS011;13725;51.170;4.442;2023-09-19T00:23:49;12.93;;;2.13;;
25922;SDS011;13725;51.170;4.442;2023-09-19T00:26:16;10.02;;;2.22;;
25922;SDS011;13725;51.170;4.442;2023-09-19T00:28:47;16.05;;;3.47;;
25922;SDS011;13725;51.170;4.442;2023-09-19T00:31:14;8.32;;;3.03;;
25922;SDS011;13725;51.170;4.442;2023-09-19T00:33:40;12.00;;;2.15;;
25922;SDS011;13725;51.170;4.442;2023-09-19T00:36:06;12.73;;;2.30;;
25922;SDS011;13725;51.170;4.442;2023-09-19T00:38:32;10.18;;;2.30;;
25922;SDS011;13725;51.170;4.442;2023-09-19T00:40:58;15.73;;;3.38;;
25922;SDS011;13725;51.170;4.442;2023-09-19T00:43:25;10.27;;;2.03;;
25922;SDS011;13725;51.170;4.442;2023-09-19T00:45:53;10.85;;;2.20;;
25922;SDS011;13725;51.170;4.442;2023-09-19T00:48:20;17.60;;;2.50;;
25922;SDS011;13725;51.170;4.442;2023-09-19T00:50:47;14.10;;;2.28;;
25922;SDS011;13725;51.170;4.442;2023-09-19T00:53:15;8.43;;;1.73;;
25922;SDS011;13725;51.170;4.442;2023-09-19T00:55:45;14.52;;;2.05;;
25922;SDS011;13725;51.170;4.442;2023-09-19T00:58:12;11.93;;;2.28;;
25922;SDS011;13725;51.170;4.442;2023-09-19T01:00:38;14.43;;;2.25;;
25922;SDS011;13725;51.170;4.442;2023-09-19T01:03:05;14.63;;;2.50;;
25922;SDS011;13725;51.170;4.442;2023-09-19T01:05:33;10.90;;;2.55;;
25922;SDS011;13725;51.170;4.442;2023-09-19T01:07:59;9.07;;;2.70;;
25922;SDS011;13725;51.170;4.442;2023-09-19T01:10:25;12.00;;;2.20;;
25922;SDS011;13725;51.170;4.442;2023-09-19T01:24:10;11.73;;;2.40;;
25922;SDS011;13725;51.170;4.442;2023-09-19T01:29:51;12.80;;;2.33;;
25922;SDS011;13725;51.170;4.442;2023-09-19T01:32:21;7.43;;;2.08;;
25922;SDS011;13725;51.170;4.442;2023-09-19T01:37:18;13.38;;;2.75;;
25922;SDS011;13725;51.170;4.442;2023-09-19T01:39:53;11.52;;;2.13;;
25922;SDS011;13725;51.170;4.442;2023-09-19T01:42:40;9.00;;;2.08;;
25922;SDS011;13725;51.170;4.442;2023-09-19T01:48:05;11.70;;;2.10;;
25922;SDS011;13725;51.170;4.442;2023-09-19T01:51:03;11.70;;;2.50;;
25922;SDS011;13725;51.170;4.442;2023-09-19T01:53:45;8.30;;;2.22;;
25922;SDS011;13725;51.170;4.442;2023-09-19T01:59:37;17.33;;;2.70;;
25922;SDS011;13725;51.170;4.442;2023-09-19T02:02:10;10.75;;;2.47;;
25922;SDS011;13725;51.170;4.442;2023-09-19T02:04:37;11.88;;;2.83;;
25922;SDS011;13725;51.170;4.442;2023-09-19T02:07:03;7.15;;;2.08;;
25922;SDS011;13725;51.170;4.442;2023-09-19T02:09:30;10.85;;;2.25;;
25922;SDS011;13725;51.170;4.442;2023-09-19T02:12:00;14.25;;;2.13;;
25922;SDS011;13725;51.170;4.442;2023-09-19T02:14:29;8.90;;;1.98;;
25922;SDS011;13725;51.170;4.442;2023-09-19T02:16:56;9.13;;;2.42;;
25922;SDS011;13725;51.170;4.442;2023-09-19T02:19:21;16.83;;;2.80;;
25922;SDS011;13725;51.170;4.442;2023-09-19T02:21:48;10.50;;;2.25;;
25922;SDS011;13725;51.170;4.442;2023-09-19T02:24:14;16.92;;;2.00;;
25922;SDS011;13725;51.170;4.442;2023-09-19T02:26:41;9.98;;;3.00;;
25922;SDS011;13725;51.170;4.442;2023-09-19T02:29:07;12.50;;;2.47;;
25922;SDS011;13725;51.170;4.442;2023-09-19T02:31:38;8.13;;;2.72;;
25922;SDS011;13725;51.170;4.442;2023-09-19T02:34:04;7.90;;;1.90;;
25922;SDS011;13725;51.170;4.442;2023-09-19T02:36:32;10.30;;;2.28;;
25922;SDS011;13725;51.170;4.442;2023-09-19T02:38:58;14.77;;;1.75;;
25922;SDS011;13725;51.170;4.442;2023-09-19T02:41:23;15.98;;;2.53;;
25922;SDS011;13725;51.170;4.442;2023-09-19T02:43:49;13.93;;;3.97;;
25922;SDS011;13725;51.170;4.442;2023-09-19T02:46:15;13.68;;;2.20;;
25922;SDS011;13725;51.170;4.442;2023-09-19T02:48:42;11.68;;;3.10;;
25922;SDS011;13725;51.170;4.442;2023-09-19T02:51:07;10.70;;;1.73;;
25922;SDS011;13725;51.170;4.442;2023-09-19T02:53:33;12.25;;;2.53;;
25922;SDS011;13725;51.170;4.442;2023-09-19T02:55:59;13.20;;;2.92;;
25922;SDS011;13725;51.170;4.442;2023-09-19T02:58:26;15.57;;;2.28;;
25922;SDS011;13725;51.170;4.442;2023-09-19T03:00:53;16.63;;;2.75;;
25922;SDS011;13725;51.170;4.442;2023-09-19T03:03:20;17.38;;;2.50;;
25922;SDS011;13725;51.170;4.442;2023-09-19T03:05:47;20.23;;;2.67;;
25922;SDS011;13725;51.170;4.442;2023-09-19T03:08:16;9.02;;;2.17;;
25922;SDS011;13725;51.170;4.442;2023-09-19T03:10:42;11.93;;;2.42;;
25922;SDS011;13725;51.170;4.442;2023-09-19T03:13:11;13.23;;;2.25;;
25922;SDS011;13725;51.170;4.442;2023-09-19T03:15:40;11.30;;;2.33;;
25922;SDS011;13725;51.170;4.442;2023-09-19T03:18:09;13.93;;;2.60;;
25922;SDS011;13725;51.170;4.442;2023-09-19T03:20:35;15.60;;;3.28;;
25922;SDS011;13725;51.170;4.442;2023-09-19T03:23:02;15.52;;;2.20;;
25922;SDS011;13725;51.170;4.442;2023-09-19T03:25:28;16.95;;;2.58;;
25922;SDS011;13725;51.170;4.442;2023-09-19T03:27:55;14.57;;;2.28;;
25922;SDS011;13725;51.170;4.442;2023-09-19T03:30:23;16.60;;;3.08;;
25922;SDS011;13725;51.170;4.442;2023-09-19T03:32:49;17.60;;;3.78;;
25922;SDS011;13725;51.170;4.442;2023-09-19T03:35:16;9.73;;;2.13;;
25922;SDS011;13725;51.170;4.442;2023-09-19T03:37:43;15.15;;;2.90;;
25922;SDS011;13725;51.170;4.442;2023-09-19T03:40:09;11.57;;;2.78;;
25922;SDS011;13725;51.170;4.442;2023-09-19T03:42:41;11.07;;;2.00;;
25922;SDS011;13725;51.170;4.442;2023-09-19T03:45:11;14.95;;;2.22;;
25922;SDS011;13725;51.170;4.442;2023-09-19T03:47:46;11.18;;;2.28;;
25922;SDS011;13725;51.170;4.442;2023-09-19T03:50:16;13.88;;;2.05;;
25922;SDS011;13725;51.170;4.442;2023-09-19T03:52:43;10.60;;;2.17;;
25922;SDS011;13725;51.170;4.442;2023-09-19T03:55:09;16.85;;;2.05;;
25922;SDS011;13725;51.170;4.442;2023-09-19T03:57:37;11.07;;;2.47;;
25922;SDS011;13725;51.170;4.442;2023-09-19T04:00:03;8.57;;;2.50;;
25922;SDS011;13725;51.170;4.442;2023-09-19T04:02:38;13.35;;;3.20;;
25922;SDS011;13725;51.170;4.442;2023-09-19T04:05:05;11.95;;;2.03;;
25922;SDS011;13725;51.170;4.442;2023-09-19T04:07:31;9.38;;;1.85;;
25922;SDS011;13725;51.170;4.442;2023-09-19T04:09:57;12.45;;;2.03;;
25922;SDS011;13725;51.170;4.442;2023-09-19T04:12:23;14.68;;;2.17;;
25922;SDS011;13725;51.170;4.442;2023-09-19T04:14:48;11.15;;;2.00;;
25922;SDS011;13725;51.170;4.442;2023-09-19T04:17:16;10.63;;;1.83;;
25922;SDS011;13725;51.170;4.442;2023-09-19T04:19:43;10.70;;;1.88;;
25922;SDS011;13725;51.170;4.442;2023-09-19T04:22:10;12.57;;;2.53;;
25922;SDS011;13725;51.170;4.442;2023-09-19T04:24:38;10.90;;;2.38;;
25922;SDS011;13725;51.170;4.442;2023-09-19T04:27:04;14.15;;;3.08;;
25922;SDS011;13725;51.170;4.442;2023-09-19T04:29:30;13.27;;;2.08;;
25922;SDS011;13725;51.170;4.442;2023-09-19T04:31:56;14.27;;;2.00;;
25922;SDS011;13725;51.170;4.442;2023-09-19T04:34:25;12.73;;;2.58;;
25922;SDS011;13725;51.170;4.442;2023-09-19T04:36:51;14.93;;;2.75;;
25922;SDS011;13725;51.170;4.442;2023-09-19T04:39:19;18.08;;;3.08;;
25922;SDS011;13725;51.170;4.442;2023-09-19T04:41:46;8.93;;;2.33;;
25922;SDS011;13725;51.170;4.442;2023-09-19T04:44:13;11.95;;;2.15;;
25922;SDS011;13725;51.170;4.442;2023-09-19T04:46:39;15.40;;;2.58;;
25922;SDS011;13725;51.170;4.442;2023-09-19T04:49:04;12.00;;;2.20;;
25922;SDS011;13725;51.170;4.442;2023-09-19T04:51:30;17.75;;;2.72;;
25922;SDS011;13725;51.170;4.442;2023-09-19T04:53:59;14.27;;;2.20;;
25922;SDS011;13725;51.170;4.442;2023-09-19T04:56:25;14.48;;;2.40;;
25922;SDS011;13725;51.170;4.442;2023-09-19T04:58:53;10.40;;;2.40;;
25922;SDS011;13725;51.170;4.442;2023-09-19T05:01:19;19.23;;;2.35;;
25922;SDS011;13725;51.170;4.442;2023-09-19T05:03:47;12.70;;;2.28;;
25922;SDS011;13725;51.170;4.442;2023-09-19T05:06:17;24.23;;;3.35;;
25922;SDS011;13725;51.170;4.442;2023-09-19T05:08:43;13.80;;;3.03;;
25922;SDS011;13725;51.170;4.442;2023-09-19T05:11:09;17.13;;;3.25;;
25922;SDS011;13725;51.170;4.442;2023-09-19T05:13:35;13.82;;;2.63;;
25922;SDS011;13725;51.170;4.442;2023-09-19T05:16:01;23.00;;;3.00;;
25922;SDS011;13725;51.170;4.442;2023-09-19T05:18:27;14.45;;;3.00;;
25922;SDS011;13725;51.170;4.442;2023-09-19T05:20:53;25.15;;;2.85;;
25922;SDS011;13725;51.170;4.442;2023-09-19T05:23:19;18.83;;;2.90;;
25922;SDS011;13725;51.170;4.442;2023-09-19T05:25:46;15.68;;;3.47;;
25922;SDS011;13725;51.170;4.442;2023-09-19T05:28:13;17.08;;;2.15;;
25922;SDS011;13725;51.170;4.442;2023-09-19T05:30:40;12.70;;;2.40;;
25922;SDS011;13725;51.170;4.442;2023-09-19T05:33:07;20.88;;;2.42;;
25922;SDS011;13725;51.170;4.442;2023-09-19T05:35:34;19.88;;;2.70;;
25922;SDS011;13725;51.170;4.442;2023-09-19T05:38:07;12.32;;;2.28;;
25922;SDS011;13725;51.170;4.442;2023-09-19T05:40:38;20.58;;;2.95;;
25922;SDS011;13725;51.170;4.442;2023-09-19T05:43:07;14.75;;;2.85;;
25922;SDS011;13725;51.170;4.442;2023-09-19T05:45:33;16.00;;;2.70;;
25922;SDS011;13725;51.170;4.442;2023-09-19T05:48:07;15.15;;;2.50;;
25922;SDS011;13725;51.170;4.442;2023-09-19T05:50:34;19.80;;;2.85;;
25922;SDS011;13725;51.170;4.442;2023-09-19T05:53:01;16.35;;;2.85;;
25922;SDS011;13725;51.170;4.442;2023-09-19T05:55:27;17.10;;;2.50;;
25922;SDS011;13725;51.170;4.442;2023-09-19T05:57:53;12.65;;;2.08;;
25922;SDS011;13725;51.170;4.442;2023-09-19T06:00:20;11.98;;;2.42;;
25922;SDS011;13725;51.170;4.442;2023-09-19T06:02:51;14.20;;;2.40;;
25922;SDS011;13725;51.170;4.442;2023-09-19T06:05:17;15.27;;;3.00;;
25922;SDS011;13725;51.170;4.442;2023-09-19T06:07:44;21.77;;;2.65;;
25922;SDS011;13725;51.170;4.442;2023-09-19T06:10:09;15.45;;;2.10;;
25922;SDS011;13725;51.170;4.442;2023-09-19T06:12:39;10.48;;;3.15;;
25922;SDS011;13725;51.170;4.442;2023-09-19T06:15:05;19.10;;;2.33;;
25922;SDS011;13725;51.170;4.442;2023-09-19T06:17:34;17.83;;;3.08;;
25922;SDS011;13725;51.170;4.442;2023-09-19T06:20:04;15.70;;;3.00;;
25922;SDS011;13725;51.170;4.442;2023-09-19T06:22:38;15.32;;;2.65;;
25922;SDS011;13725;51.170;4.442;2023-09-19T06:25:07;9.60;;;2.17;;
25922;SDS011;13725;51.170;4.442;2023-09-19T06:27:36;21.38;;;2.78;;
25922;SDS011;13725;51.170;4.442;2023-09-19T06:30:09;16.25;;;3.75;;
25922;SDS011;13725;51.170;4.442;2023-09-19T06:32:42;16.92;;;2.25;;
25922;SDS011;13725;51.170;4.442;2023-09-19T06:35:09;11.13;;;2.35;;
25922;SDS011;13725;51.170;4.442;2023-09-19T06:37:36;19.85;;;3.15;;
25922;SDS011;13725;51.170;4.442;2023-09-19T06:40:14;21.17;;;4.60;;
25922;SDS011;13725;51.170;4.442;2023-09-19T06:42:44;11.50;;;2.45;;
25922;SDS011;13725;51.170;4.442;2023-09-19T06:45:12;12.10;;;2.22;;
25922;SDS011;13725;51.170;4.442;2023-09-19T06:47:42;14.32;;;2.45;;
25922;SDS011;13725;51.170;4.442;2023-09-19T06:50:11;13.00;;;2.28;;
25922;SDS011;13725;51.170;4.442;2023-09-19T06:52:40;11.43;;;2.83;;
25922;SDS011;13725;51.170;4.442;2023-09-19T06:55:06;13.50;;;1.90;;
25922;SDS011;13725;51.170;4.442;2023-09-19T06:57:32;12.52;;;2.38;;
25922;SDS011;13725;51.170;4.442;2023-09-19T06:59:58;13.82;;;2.60;;
25922;SDS011;13725;51.170;4.442;2023-09-19T07:02:26;9.10;;;2.10;;
25922;SDS011;13725;51.170;4.442;2023-09-19T07:04:52;11.35;;;2.40;;
25922;SDS011;13725;51.170;4.442;2023-09-19T07:07:18;14.38;;;2.35;;
25922;SDS011;13725;51.170;4.442;2023-09-19T07:09:43;9.07;;;2.40;;
25922;SDS011;13725;51.170;4.442;2023-09-19T07:12:09;13.00;;;3.20;;
25922;SDS011;13725;51.170;4.442;2023-09-19T07:14:37;20.13;;;2.47;;
25922;SDS011;13725;51.170;4.442;2023-09-19T07:17:03;15.38;;;3.17;;
25922;SDS011;13725;51.170;4.442;2023-09-19T07:19:29;8.75;;;2.15;;
25922;SDS011;13725;51.170;4.442;2023-09-19T07:21:56;9.68;;;1.80;;
25922;SDS011;13725;51.170;4.442;2023-09-19T07:24:24;16.52;;;2.33;;
25922;SDS011;13725;51.170;4.442;2023-09-19T07:26:52;9.40;;;2.20;;
25922;SDS011;13725;51.170;4.442;2023-09-19T07:29:18;13.20;;;2.92;;
25922;SDS011;13725;51.170;4.442;2023-09-19T07:31:44;14.85;;;2.10;;
25922;SDS011;13725;51.170;4.442;2023-09-19T07:34:10;14.63;;;2.50;;
25922;SDS011;13725;51.170;4.442;2023-09-19T07:36:35;12.60;;;1.83;;
25922;SDS011;13725;51.170;4.442;2023-09-19T07:39:03;12.02;;;2.47;;
25922;SDS011;13725;51.170;4.442;2023-09-19T07:41:32;10.75;;;1.90;;
25922;SDS011;13725;51.170;4.442;2023-09-19T07:43:58;11.23;;;1.90;;
25922;SDS011;13725;51.170;4.442;2023-09-19T07:46:24;19.58;;;2.47;;
25922;SDS011;13725;51.170;4.442;2023-09-19T07:48:51;9.02;;;2.38;;
25922;SDS011;13725;51.170;4.442;2023-09-19T07:51:17;11.25;;;2.47;;
25922;SDS011;13725;51.170;4.442;2023-09-19T07:53:43;16.00;;;2.95;;
25922;SDS011;13725;51.170;4.442;2023-09-19T07:56:09;10.55;;;2.15;;
25922;SDS011;13725;51.170;4.442;2023-09-19T07:58:35;13.70;;;2.38;;
25922;SDS011;13725;51.170;4.442;2023-09-19T08:01:06;17.35;;;3.05;;
25922;SDS011;13725;51.170;4.442;2023-09-19T08:03:33;9.23;;;2.20;;
25922;SDS011;13725;51.170;4.442;2023-09-19T08:06:04;15.52;;;2.58;;
25922;SDS011;13725;51.170;4.442;2023-09-19T08:08:30;9.65;;;2.33;;
25922;SDS011;13725;51.170;4.442;2023-09-19T08:10:57;14.50;;;2.67;;
25922;SDS011;13725;51.170;4.442;2023-09-19T08:13:23;10.38;;;2.35;;
25922;SDS011;13725;51.170;4.442;2023-09-19T08:15:50;11.25;;;2.13;;
25922;SDS011;13725;51.170;4.442;2023-09-19T08:18:18;9.75;;;2.17;;
25922;SDS011;13725;51.170;4.442;2023-09-19T08:20:48;11.88;;;2.33;;
25922;SDS011;13725;51.170;4.442;2023-09-19T08:23:16;15.10;;;2.13;;
25922;SDS011;13725;51.170;4.442;2023-09-19T08:25:45;12.82;;;2.55;;
25922;SDS011;13725;51.170;4.442;2023-09-19T08:28:11;8.80;;;1.83;;
25922;SDS011;13725;51.170;4.442;2023-09-19T08:30:39;5.57;;;1.52;;
25922;SDS011;13725;51.170;4.442;2023-09-19T08:33:06;10.10;;;2.20;;
25922;SDS011;13725;51.170;4.442;2023-09-19T08:35:32;14.48;;;2.17;;
25922;SDS011;13725;51.170;4.442;2023-09-19T08:37:58;9.77;;;1.92;;
25922;SDS011;13725;51.170;4.442;2023-09-19T08:40:32;15.07;;;2.67;;
25922;SDS011;13725;51.170;4.442;2023-09-19T08:43:01;11.00;;;2.33;;
25922;SDS011;13725;51.170;4.442;2023-09-19T08:45:28;8.85;;;1.67;;
25922;SDS011;13725;51.170;4.442;2023-09-19T08:47:59;11.48;;;2.38;;
25922;SDS011;13725;51.170;4.442;2023-09-19T08:50:28;14.60;;;2.95;;
25922;SDS011;13725;51.170;4.442;2023-09-19T08:53:00;9.70;;;1.98;;
25922;SDS011;13725;51.170;4.442;2023-09-19T08:55:27;15.50;;;2.47;;
25922;SDS011;13725;51.170;4.442;2023-09-19T08:58:06;12.52;;;2.33;;
25922;SDS011;13725;51.170;4.442;2023-09-19T09:00:35;11.80;;;2.40;;
25922;SDS011;13725;51.170;4.442;2023-09-19T09:03:02;8.00;;;2.38;;
25922;SDS011;13725;51.170;4.442;2023-09-19T09:05:31;9.82;;;1.80;;
25922;SDS011;13725;51.170;4.442;2023-09-19T09:08:01;11.10;;;2.15;;
25922;SDS011;13725;51.170;4.442;2023-09-19T09:10:31;11.93;;;2.47;;
25922;SDS011;13725;51.170;4.442;2023-09-19T09:12:57;8.20;;;2.05;;
25922;SDS011;13725;51.170;4.442;2023-09-19T09:15:24;12.02;;;2.33;;
25922;SDS011;13725;51.170;4.442;2023-09-19T09:17:50;25.10;;;3.55;;
25922;SDS011;13725;51.170;4.442;2023-09-19T09:20:21;13.65;;;3.05;;
25922;SDS011;13725;51.170;4.442;2023-09-19T09:22:53;13.20;;;2.40;;
25922;SDS011;13725;51.170;4.442;2023-09-19T09:25:21;19.02;;;3.17;;
25922;SDS011;13725;51.170;4.442;2023-09-19T09:27:59;10.45;;;1.88;;
25922;SDS011;13725;51.170;4.442;2023-09-19T09:30:36;9.38;;;1.40;;
25922;SDS011;13725;51.170;4.442;2023-09-19T09:33:09;9.60;;;2.53;;
25922;SDS011;13725;51.170;4.442;2023-09-19T09:35:37;8.07;;;1.95;;
25922;SDS011;13725;51.170;4.442;2023-09-19T09:38:13;10.32;;;2.40;;
25922;SDS011;13725;51.170;4.442;2023-09-19T09:40:48;12.05;;;1.98;;
25922;SDS011;13725;51.170;4.442;2023-09-19T09:43:24;10.98;;;1.90;;
25922;SDS011;13725;51.170;4.442;2023-09-19T09:46:05;9.77;;;1.75;;
25922;SDS011;13725;51.170;4.442;2023-09-19T09:49:04;10.20;;;2.00;;
25922;SDS011;13725;51.170;4.442;2023-09-19T09:51:50;9.13;;;1.83;;
25922;SDS011;13725;51.170;4.442;2023-09-19T09:55:02;15.45;;;1.83;;
25922;SDS011;13725;51.170;4.442;2023-09-19T09:57:33;10.55;;;1.75;;
25922;SDS011;13725;51.170;4.442;2023-09-19T09:59:59;6.15;;;1.33;;
25922;SDS011;13725;51.170;4.442;2023-09-19T10:02:38;5.38;;;1.58;;
25922;SDS011;13725;51.170;4.442;2023-09-19T10:05:12;4.95;;;1.60;;
25922;SDS011;13725;51.170;4.442;2023-09-19T10:07:45;9.75;;;1.90;;
25922;SDS011;13725;51.170;4.442;2023-09-19T10:10:36;7.32;;;1.52;;
25922;SDS011;13725;51.170;4.442;2023-09-19T10:13:06;6.65;;;1.52;;
25922;SDS011;13725;51.170;4.442;2023-09-19T10:15:37;3.97;;;1.25;;
25922;SDS011;13725;51.170;4.442;2023-09-19T10:18:06;7.38;;;1.67;;
25922;SDS011;13725;51.170;4.442;2023-09-19T10:20:36;5.80;;;1.48;;
25922;SDS011;13725;51.170;4.442;2023-09-19T10:25:43;6.30;;;1.58;;
25922;SDS011;13725;51.170;4.442;2023-09-19T10:28:13;5.53;;;1.40;;
25922;SDS011;13725;51.170;4.442;2023-09-19T10:30:44;6.78;;;1.40;;
25922;SDS011;13725;51.170;4.442;2023-09-19T10:33:14;5.88;;;1.02;;
25922;SDS011;13725;51.170;4.442;2023-09-19T10:35:44;5.25;;;1.40;;
25922;SDS011;13725;51.170;4.442;2023-09-19T10:38:12;5.63;;;1.38;;
25922;SDS011;13725;51.170;4.442;2023-09-19T10:40:39;4.53;;;1.65;;
25922;SDS011;13725;51.170;4.442;2023-09-19T10:43:29;4.20;;;1.30;;
25922;SDS011;13725;51.170;4.442;2023-09-19T10:45:57;6.00;;;1.50;;
25922;SDS011;13725;51.170;4.442;2023-09-19T10:48:29;3.38;;;1.30;;
25922;SDS011;13725;51.170;4.442;2023-09-19T10:53:26;8.35;;;1.52;;
25922;SDS011;13725;51.170;4.442;2023-09-19T10:55:55;4.50;;;1.27;;
25922;SDS011;13725;51.170;4.442;2023-09-19T10:58:29;6.70;;;1.23;;
25922;SDS011;13725;51.170;4.442;2023-09-19T11:00:59;6.45;;;1.20;;
25922;SDS011;13725;51.170;4.442;2023-09-19T11:03:30;2.08;;;0.80;;
25922;SDS011;13725;51.170;4.442;2023-09-19T11:06:09;3.38;;;0.95;;
25922;SDS011;13725;51.170;4.442;2023-09-19T11:08:55;8.02;;;1.38;;
25922;SDS011;13725;51.170;4.442;2023-09-19T11:30:31;4.97;;;1.00;;
25922;SDS011;13725;51.170;4.442;2023-09-19T11:33:41;3.28;;;0.90;;
25922;SDS011;13725;51.170;4.442;2023-09-19T11:41:52;3.70;;;1.02;;
25922;SDS011;13725;51.170;4.442;2023-09-19T11:46:51;7.60;;;0.95;;
25922;SDS011;13725;51.170;4.442;2023-09-19T11:49:18;2.75;;;1.02;;
25922;SDS011;13725;51.170;4.442;2023-09-19T11:51:51;4.30;;;0.98;;
25922;SDS011;13725;51.170;4.442;2023-09-19T11:54:18;1.23;;;0.63;;
25922;SDS011;13725;51.170;4.442;2023-09-19T11:56:48;3.95;;;1.10;;
25922;SDS011;13725;51.170;4.442;2023-09-19T11:59:21;2.45;;;0.70;;
25922;SDS011;13725;51.170;4.442;2023-09-19T12:01:52;3.95;;;0.90;;
25922;SDS011;13725;51.170;4.442;2023-09-19T12:04:43;2.80;;;0.77;;
25922;SDS011;13725;51.170;4.442;2023-09-19T12:07:13;2.80;;;0.85;;
25922;SDS011;13725;51.170;4.442;2023-09-19T12:09:44;2.78;;;0.90;;
25922;SDS011;13725;51.170;4.442;2023-09-19T12:14:53;5.38;;;1.02;;
25922;SDS011;13725;51.170;4.442;2023-09-19T12:17:23;4.68;;;1.55;;
25922;SDS011;13725;51.170;4.442;2023-09-19T12:19:50;2.58;;;0.90;;
25922;SDS011;13725;51.170;4.442;2023-09-19T12:22:17;6.88;;;1.10;;
25922;SDS011;13725;51.170;4.442;2023-09-19T12:24:44;2.85;;;0.70;;
25922;SDS011;13725;51.170;4.442;2023-09-19T12:27:10;3.30;;;0.88;;
25922;SDS011;13725;51.170;4.442;2023-09-19T12:29:43;5.25;;;1.00;;
25922;SDS011;13725;51.170;4.442;2023-09-19T12:32:14;4.63;;;0.80;;
25922;SDS011;13725;51.170;4.442;2023-09-19T12:34:42;3.95;;;1.10;;
25922;SDS011;13725;51.170;4.442;2023-09-19T12:37:16;2.25;;;0.90;;
25922;SDS011;13725;51.170;4.442;2023-09-19T12:39:52;2.83;;;1.10;;
25922;SDS011;13725;51.170;4.442;2023-09-19T12:42:23;3.88;;;0.90;;
25922;SDS011;13725;51.170;4.442;2023-09-19T12:44:54;7.00;;;0.98;;
25922;SDS011;13725;51.170;4.442;2023-09-19T12:47:22;3.55;;;1.00;;
25922;SDS011;13725;51.170;4.442;2023-09-19T12:50:08;6.45;;;1.30;;
25922;SDS011;13725;51.170;4.442;2023-09-19T12:52:40;2.60;;;0.77;;
25922;SDS011;13725;51.170;4.442;2023-09-19T12:55:07;5.28;;;1.02;;
25922;SDS011;13725;51.170;4.442;2023-09-19T12:57:34;5.15;;;0.95;;
25922;SDS011;13725;51.170;4.442;2023-09-19T13:00:03;6.65;;;1.13;;
25922;SDS011;13725;51.170;4.442;2023-09-19T13:02:31;3.28;;;1.17;;
25922;SDS011;13725;51.170;4.442;2023-09-19T13:04:58;3.92;;;1.00;;
25922;SDS011;13725;51.170;4.442;2023-09-19T13:07:43;5.82;;;1.40;;
25922;SDS011;13725;51.170;4.442;2023-09-19T13:10:14;6.13;;;1.20;;
25922;SDS011;13725;51.170;4.442;2023-09-19T13:12:41;4.82;;;1.13;;
25922;SDS011;13725;51.170;4.442;2023-09-19T13:15:15;4.60;;;0.93;;
25922;SDS011;13725;51.170;4.442;2023-09-19T13:17:49;4.32;;;1.42;;
25922;SDS011;13725;51.170;4.442;2023-09-19T13:20:24;6.32;;;1.00;;
25922;SDS011;13725;51.170;4.442;2023-09-19T13:22:54;8.18;;;1.20;;
25922;SDS011;13725;51.170;4.442;2023-09-19T13:25:23;4.15;;;1.13;;
25922;SDS011;13725;51.170;4.442;2023-09-19T13:27:54;7.03;;;1.33;;
25922;SDS011;13725;51.170;4.442;2023-09-19T13:30:22;8.48;;;1.30;;
25922;SDS011;13725;51.170;4.442;2023-09-19T13:32:50;5.00;;;1.27;;
25922;SDS011;13725;51.170;4.442;2023-09-19T13:35:18;4.80;;;1.27;;
25922;SDS011;13725;51.170;4.442;2023-09-19T13:37:45;5.38;;;0.80;;
25922;SDS011;13725;51.170;4.442;2023-09-19T13:40:16;3.65;;;1.05;;
25922;SDS011;13725;51.170;4.442;2023-09-19T13:42:43;6.93;;;1.05;;
25922;SDS011;13725;51.170;4.442;2023-09-19T13:45:09;9.65;;;1.23;;
25922;SDS011;13725;51.170;4.442;2023-09-19T13:47:37;7.30;;;1.00;;
25922;SDS011;13725;51.170;4.442;2023-09-19T13:50:04;7.72;;;1.33;;
25922;SDS011;13725;51.170;4.442;2023-09-19T13:52:31;2.88;;;0.93;;
25922;SDS011;13725;51.170;4.442;2023-09-19T13:54:57;3.72;;;1.10;;
25922;SDS011;13725;51.170;4.442;2023-09-19T13:57:23;6.22;;;1.10;;
25922;SDS011;13725;51.170;4.442;2023-09-19T13:59:50;4.18;;;1.20;;
25922;SDS011;13725;51.170;4.442;2023-09-19T14:02:20;3.60;;;1.20;;
25922;SDS011;13725;51.170;4.442;2023-09-19T14:04:51;5.82;;;1.40;;
25922;SDS011;13725;51.170;4.442;2023-09-19T14:07:17;2.67;;;1.00;;
25922;SDS011;13725;51.170;4.442;2023-09-19T14:09:45;5.90;;;0.93;;
25922;SDS011;13725;51.170;4.442;2023-09-19T14:12:11;8.50;;;1.60;;
25922;SDS011;13725;51.170;4.442;2023-09-19T14:14:38;3.17;;;1.10;;
25922;SDS011;13725;51.170;4.442;2023-09-19T14:17:04;4.97;;;1.40;;
25922;SDS011;13725;51.170;4.442;2023-09-19T14:19:30;3.95;;;1.05;;
25922;SDS011;13725;51.170;4.442;2023-09-19T14:21:56;3.58;;;0.82;;
25922;SDS011;13725;51.170;4.442;2023-09-19T14:24:22;5.15;;;1.33;;
25922;SDS011;13725;51.170;4.442;2023-09-19T14:26:48;6.20;;;1.05;;
25922;SDS011;13725;51.170;4.442;2023-09-19T14:29:15;8.95;;;1.10;;
25922;SDS011;13725;51.170;4.442;2023-09-19T14:31:41;5.32;;;1.00;;
25922;SDS011;13725;51.170;4.442;2023-09-19T14:34:08;6.43;;;1.70;;
25922;SDS011;13725;51.170;4.442;2023-09-19T14:36:37;6.28;;;1.10;;
25922;SDS011;13725;51.170;4.442;2023-09-19T14:39:06;4.00;;;1.10;;
25922;SDS011;13725;51.170;4.442;2023-09-19T14:41:33;7.20;;;1.52;;
25922;SDS011;13725;51.170;4.442;2023-09-19T14:43:59;3.95;;;1.40;;
25922;SDS011;13725;51.170;4.442;2023-09-19T14:46:27;3.28;;;0.95;;
25922;SDS011;13725;51.170;4.442;2023-09-19T14:48:53;7.03;;;1.70;;
25922;SDS011;13725;51.170;4.442;2023-09-19T14:51:22;5.05;;;1.27;;
25922;SDS011;13725;51.170;4.442;2023-09-19T14:53:48;8.20;;;1.02;;
25922;SDS011;13725;51.170;4.442;2023-09-19T14:56:14;6.03;;;1.63;;
25922;SDS011;13725;51.170;4.442;2023-09-19T14:58:43;7.78;;;1.52;;
25922;SDS011;13725;51.170;4.442;2023-09-19T15:01:10;7.57;;;1.73;;
25922;SDS011;13725;51.170;4.442;2023-09-19T15:03:37;7.38;;;1.73;;
25922;SDS011;13725;51.170;4.442;2023-09-19T15:06:08;7.28;;;1.40;;
25922;SDS011;13725;51.170;4.442;2023-09-19T15:08:36;9.23;;;1.75;;
25922;SDS011;13725;51.170;4.442;2023-09-19T15:11:08;6.47;;;1.77;;
25922;SDS011;13725;51.170;4.442;2023-09-19T15:13:35;7.38;;;1.48;;
25922;SDS011;13725;51.170;4.442;2023-09-19T15:16:05;7.95;;;1.48;;
25922;SDS011;13725;51.170;4.442;2023-09-19T15:18:35;10.63;;;1.55;;
25922;SDS011;13725;51.170;4.442;2023-09-19T15:21:10;7.32;;;1.23;;
25922;SDS011;13725;51.170;4.442;2023-09-19T15:23:38;6.35;;;1.23;;
25922;SDS011;13725;51.170;4.442;2023-09-19T15:26:04;6.72;;;2.17;;
25922;SDS011;13725;51.170;4.442;2023-09-19T15:28:31;7.53;;;1.50;;
25922;SDS011;13725;51.170;4.442;2023-09-19T15:31:02;6.82;;;1.33;;
25922;SDS011;13725;51.170;4.442;2023-09-19T15:33:36;5.47;;;1.35;;
25922;SDS011;13725;51.170;4.442;2023-09-19T15:38:32;4.40;;;1.08;;
25922;SDS011;13725;51.170;4.442;2023-09-19T15:41:27;5.70;;;1.30;;
25922;SDS011;13725;51.170;4.442;2023-09-19T15:43:54;4.47;;;1.40;;
25922;SDS011;13725;51.170;4.442;2023-09-19T15:46:21;5.82;;;1.67;;
25922;SDS011;13725;51.170;4.442;2023-09-19T15:48:48;8.63;;;1.63;;
25922;SDS011;13725;51.170;4.442;2023-09-19T15:51:15;7.68;;;1.30;;
25922;SDS011;13725;51.170;4.442;2023-09-19T15:53:42;7.15;;;1.77;;